Time;durP1;ratioP1;P1;durP2;ratioP2;P2;SDS_P1;SDS_P2;PMS_P1;PMS_P2;Temp;Humidity;BMP_temperature;BMP_pressure;BME280_temperature;BME280_humidity;BME280_pressure;Samples;Min_cycle;Max_cycle;Signal;HPM_P1;HPM_P2
2023/09/18 00:00:23;;;;;;;63.85;34.58;;;17.00;99.90;;;;;;5159311;27;20074;-74
2023/09/18 00:02:49;;;;;;;69.53;36.00;;;17.00;99.90;;;;;;5140525;27;20038;-74
2023/09/18 00:05:15;;;;;;;68.85;35.72;;;17.00;99.90;;;;;;5159037;27;20039;-74
2023/09/18 00:07:44;;;;;;;63.58;33.30;;;17.00;99.90;;;;;;5159029;27;20379;-74
2023/09/18 00:10:11;;;;;;;64.85;34.13;;;17.00;99.90;;;;;;5140424;27;20121;-74
2023/09/18 00:12:38;;;;;;;49.33;33.30;;;16.90;99.90;;;;;;5140306;27;20401;-74
2023/09/18 00:15:05;;;;;;;60.30;35.60;;;17.00;99.90;;;;;;5140214;27;20038;-74
2023/09/18 00:17:32;;;;;;;78.05;34.80;;;17.00;99.90;;;;;;5140169;27;20046;-73
2023/09/18 00:19:57;;;;;;;54.17;32.75;;;16.90;99.90;;;;;;5140211;27;20046;-74
2023/09/18 00:22:24;;;;;;;50.17;33.72;;;17.00;99.90;;;;;;5158819;27;20034;-74
2023/09/18 00:24:50;;;;;;;79.60;35.22;;;17.00;99.90;;;;;;5140414;27;20485;-74
2023/09/18 00:27:16;;;;;;;86.40;35.85;;;16.90;99.90;;;;;;5140266;27;20095;-73
2023/09/18 00:29:42;;;;;;;73.50;35.53;;;16.90;99.90;;;;;;5158729;27;20041;-74
2023/09/18 00:32:08;;;;;;;132.43;35.42;;;16.90;99.90;;;;;;5158429;27;20050;-74
2023/09/18 00:34:33;;;;;;;94.93;35.88;;;16.80;99.90;;;;;;5139999;27;20047;-74
2023/09/18 00:36:59;;;;;;;53.88;31.50;;;16.80;99.90;;;;;;5139893;27;20129;-73
2023/09/18 00:39:26;;;;;;;49.75;32.83;;;16.80;99.90;;;;;;5139965;27;20081;-74
2023/09/18 00:41:53;;;;;;;49.60;31.33;;;16.80;99.90;;;;;;5158513;27;20051;-74
2023/09/18 00:44:26;;;;;;;48.92;31.17;;;16.80;99.90;;;;;;5139699;27;20043;-74
2023/09/18 00:46:52;;;;;;;55.53;31.92;;;16.80;99.90;;;;;;5158591;27;20046;-74
2023/09/18 00:49:18;;;;;;;47.08;32.50;;;16.70;99.90;;;;;;5139730;27;20082;-74
2023/09/18 00:51:44;;;;;;;49.28;31.58;;;16.80;99.90;;;;;;5139690;27;20047;-74
2023/09/18 00:54:11;;;;;;;47.83;32.30;;;16.70;99.90;;;;;;5139074;27;20046;-74
2023/09/18 00:56:37;;;;;;;53.33;31.50;;;16.70;99.90;;;;;;5158094;27;20054;-74
2023/09/18 00:59:03;;;;;;;44.63;29.95;;;16.70;99.90;;;;;;5139380;27;20043;-73
2023/09/18 01:01:29;;;;;;;46.58;30.65;;;16.70;99.90;;;;;;5139579;27;20034;-73
2023/09/18 01:03:57;;;;;;;48.92;32.20;;;16.70;99.90;;;;;;5157750;27;20062;-73
2023/09/18 01:06:27;;;;;;;50.65;32.92;;;16.70;99.90;;;;;;5157990;27;20117;-74
2023/09/18 01:08:54;;;;;;;49.42;32.90;;;16.70;99.90;;;;;;5139397;27;20042;-74
2023/09/18 01:11:30;;;;;;;48.80;32.53;;;16.80;99.90;;;;;;5157895;27;20042;-74
2023/09/18 01:14:09;;;;;;;46.17;32.22;;;16.80;99.90;;;;;;5139556;27;20099;-74
2023/09/18 01:17:05;;;;;;;52.47;34.13;;;16.80;99.90;;;;;;5139177;27;20039;-74
2023/09/18 01:19:45;;;;;;;48.72;32.55;;;16.80;99.90;;;;;;5137155;27;20465;-73
2023/09/18 01:22:16;;;;;;;47.70;33.20;;;16.70;99.90;;;;;;5139048;27;20053;-73
2023/09/18 01:24:44;;;;;;;51.08;32.95;;;16.80;99.90;;;;;;5139136;27;20091;-74
2023/09/18 01:27:16;;;;;;;47.88;31.67;;;16.70;99.90;;;;;;5139307;27;20039;-73
2023/09/18 01:29:46;;;;;;;;;;;16.80;99.90;;;;;;5139547;27;20051;-73
2023/09/18 01:32:12;;;;;;;46.30;31.45;;;16.70;99.90;;;;;;5135330;27;20004;-73
2023/09/18 01:34:50;;;;;;;48.33;31.10;;;16.70;99.90;;;;;;5135332;27;20122;-74
2023/09/18 01:37:20;;;;;;;46.97;31.60;;;16.70;99.90;;;;;;5135346;27;20466;-74
2023/09/18 01:39:48;;;;;;;63.42;31.95;;;16.70;99.90;;;;;;5135406;27;20390;-74
2023/09/18 01:42:14;;;;;;;44.40;31.42;;;16.60;99.90;;;;;;5136370;27;20043;-74
2023/09/18 01:44:41;;;;;;;47.03;31.02;;;16.60;99.90;;;;;;5135451;27;20088;-74
2023/09/18 01:47:11;;;;;;;73.35;32.95;;;16.60;99.90;;;;;;5135135;27;20385;-74
2023/09/18 01:49:38;;;;;;;46.58;32.15;;;16.60;99.90;;;;;;5135428;27;20075;-74
2023/09/18 01:52:05;;;;;;;45.75;31.77;;;16.70;99.90;;;;;;5135351;27;20073;-73
2023/09/18 01:54:32;;;;;;;41.60;30.95;;;16.60;99.90;;;;;;5136296;27;20105;-74
2023/09/18 01:56:57;;;;;;;42.35;31.23;;;16.50;99.90;;;;;;5136068;27;20082;-74
2023/09/18 01:59:24;;;;;;;46.38;32.15;;;16.60;99.90;;;;;;5134873;27;20078;-74
2023/09/18 02:01:51;;;;;;;46.22;31.45;;;16.60;99.90;;;;;;5134874;27;20043;-73
2023/09/18 02:04:17;;;;;;;43.75;32.42;;;16.60;99.90;;;;;;5134862;27;20043;-74
2023/09/18 02:06:43;;;;;;;48.67;33.90;;;16.50;99.90;;;;;;5134178;27;20053;-73
2023/09/18 02:09:09;;;;;;;48.30;34.70;;;16.60;99.90;;;;;;5135056;27;20039;-73
2023/09/18 02:11:40;;;;;;;48.15;34.35;;;16.60;99.90;;;;;;5134545;27;20070;-73
2023/09/18 02:14:09;;;;;;;49.35;34.22;;;16.60;99.90;;;;;;5136026;27;20080;-74
2023/09/18 02:16:36;;;;;;;46.55;34.53;;;16.60;99.90;;;;;;5134463;27;20039;-74
2023/09/18 02:19:02;;;;;;;51.58;34.42;;;16.70;99.90;;;;;;5134821;27;20071;-73
2023/09/18 02:21:28;;;;;;;50.58;35.65;;;16.60;99.90;;;;;;5134517;27;20035;-73
2023/09/18 02:23:55;;;;;;;48.95;34.28;;;16.60;99.90;;;;;;5134288;27;20054;-74
2023/09/18 02:26:22;;;;;;;49.45;33.45;;;16.60;99.90;;;;;;5134287;27;20055;-74
2023/09/18 02:28:48;;;;;;;52.85;35.45;;;16.60;99.90;;;;;;5134524;27;20043;-74
2023/09/18 02:31:13;;;;;;;45.17;33.80;;;16.70;99.90;;;;;;5135094;27;20046;-75
2023/09/18 02:33:40;;;;;;;48.55;35.15;;;16.70;99.90;;;;;;5137716;27;20071;-74
2023/09/18 02:36:05;;;;;;;50.05;35.40;;;16.70;99.90;;;;;;5137741;27;20043;-74
2023/09/18 02:38:32;;;;;;;51.72;34.45;;;16.70;99.90;;;;;;5156202;27;20490;-74
2023/09/18 02:40:58;;;;;;;42.72;31.52;;;16.60;99.90;;;;;;5137496;27;20039;-74
2023/09/18 02:43:24;;;;;;;46.97;32.17;;;16.70;99.90;;;;;;5137821;27;20046;-74
2023/09/18 02:45:50;;;;;;;46.13;32.30;;;16.60;99.90;;;;;;5137542;27;20035;-74
2023/09/18 02:48:16;;;;;;;43.65;31.65;;;16.60;99.90;;;;;;5155990;27;20034;-73
2023/09/18 02:50:42;;;;;;;48.58;34.30;;;16.70;99.90;;;;;;5137588;27;20054;-74
2023/09/18 02:53:16;;;;;;;46.35;34.47;;;16.70;99.90;;;;;;5137177;27;20086;-74
2023/09/18 02:55:41;;;;;;;49.55;34.13;;;16.60;99.90;;;;;;5137560;27;20055;-73
2023/09/18 02:58:09;;;;;;;45.65;33.00;;;16.60;99.90;;;;;;5137150;27;20394;-74
2023/09/18 03:00:44;;;;;;;46.03;32.88;;;16.70;99.90;;;;;;5138092;27;20043;-74
2023/09/18 03:03:11;;;;;;;47.17;32.97;;;16.80;99.90;;;;;;5137460;27;20453;-74
2023/09/18 03:05:36;;;;;;;48.65;34.05;;;16.70;99.90;;;;;;5155711;27;20042;-73
2023/09/18 03:08:03;;;;;;;43.75;32.28;;;16.80;99.90;;;;;;5136962;27;20168;-73
2023/09/18 03:10:33;;;;;;;45.75;32.83;;;16.80;99.90;;;;;;5137266;27;20067;-74
2023/09/18 03:12:59;;;;;;;44.53;32.33;;;16.80;99.90;;;;;;5137148;27;20050;-73
2023/09/18 03:15:25;;;;;;;46.38;33.42;;;16.90;99.90;;;;;;5155601;27;20086;-73
2023/09/18 03:17:51;;;;;;;45.15;33.15;;;16.80;99.90;;;;;;5155157;27;20047;-73
2023/09/18 03:20:16;;;;;;;47.47;33.80;;;17.00;99.90;;;;;;5137072;27;20382;-73
2023/09/18 03:22:42;;;;;;;45.38;32.65;;;16.90;99.90;;;;;;5136815;27;20058;-73
2023/09/18 03:25:08;;;;;;;47.92;33.40;;;16.90;99.90;;;;;;5137072;27;20470;-74
2023/09/18 03:27:33;;;;;;;50.97;35.20;;;16.90;99.90;;;;;;5137066;27;20051;-73
2023/09/18 03:29:59;;;;;;;46.30;32.88;;;17.00;99.90;;;;;;5136689;27;20039;-74
2023/09/18 03:32:25;;;;;;;47.30;33.97;;;17.00;99.90;;;;;;5136516;27;20055;-74
2023/09/18 03:34:51;;;;;;;49.50;34.20;;;17.00;99.90;;;;;;5155413;27;20493;-73
2023/09/18 03:37:17;;;;;;;44.03;32.50;;;17.00;99.90;;;;;;5136734;27;20065;-73
2023/09/18 03:39:42;;;;;;;49.33;34.17;;;17.00;99.90;;;;;;5136768;27;20473;-73
2023/09/18 03:42:08;;;;;;;49.55;34.13;;;17.00;99.90;;;;;;5155243;27;20087;-73
2023/09/18 03:44:33;;;;;;;48.20;34.70;;;17.10;99.90;;;;;;5155314;27;20039;-73
2023/09/18 03:46:59;;;;;;;47.35;33.72;;;17.10;99.90;;;;;;5155268;27;20512;-73
2023/09/18 03:49:25;;;;;;;48.33;34.08;;;17.10;99.90;;;;;;5154996;27;20363;-73
2023/09/18 03:51:50;;;;;;;44.58;33.33;;;17.20;99.90;;;;;;5154912;27;20050;-73
2023/09/18 03:54:16;;;;;;;44.60;33.03;;;17.20;99.90;;;;;;5136606;27;20469;-73
2023/09/18 03:56:42;;;;;;;45.70;33.55;;;17.20;99.90;;;;;;5136693;27;20151;-73
2023/09/18 03:59:07;;;;;;;43.42;30.63;;;17.20;99.90;;;;;;5136603;27;20493;-73
2023/09/18 04:01:33;;;;;;;43.75;31.48;;;17.20;99.90;;;;;;5136549;27;20172;-73
2023/09/18 04:04:00;;;;;;;42.55;30.65;;;17.20;99.90;;;;;;5155095;27;20042;-73
2023/09/18 04:06:35;;;;;;;40.63;30.27;;;17.20;99.90;;;;;;5155087;27;20034;-73
2023/09/18 04:09:00;;;;;;;45.75;30.83;;;17.30;99.90;;;;;;5155155;27;20057;-73
2023/09/18 04:11:26;;;;;;;41.55;31.30;;;17.30;99.90;;;;;;5155063;27;20027;-73
2023/09/18 04:13:52;;;;;;;41.13;30.58;;;17.30;99.90;;;;;;5136716;27;20050;-73
2023/09/18 04:16:17;;;;;;;41.45;30.67;;;17.30;99.90;;;;;;5154896;27;20477;-73
2023/09/18 04:18:43;;;;;;;36.88;29.52;;;17.30;99.90;;;;;;5136366;27;20039;-73
2023/09/18 04:21:10;;;;;;;38.92;29.70;;;17.30;99.90;;;;;;5154956;27;20049;-73
2023/09/18 04:23:36;;;;;;;37.00;28.85;;;17.30;99.90;;;;;;5136517;27;20470;-73
2023/09/18 04:26:02;;;;;;;37.00;28.85;;;17.30;99.90;;;;;;5136227;27;20043;-73
2023/09/18 04:28:27;;;;;;;38.75;29.27;;;17.30;99.90;;;;;;5136359;27;20080;-73
2023/09/18 04:30:53;;;;;;;41.92;30.40;;;17.40;99.90;;;;;;5157562;27;20062;-73
2023/09/18 04:33:21;;;;;;;40.88;30.17;;;17.30;99.90;;;;;;5139783;27;20050;-73
2023/09/18 04:35:46;;;;;;;38.03;28.67;;;17.40;99.90;;;;;;5140170;27;20486;-73
2023/09/18 04:38:15;;;;;;;38.53;29.50;;;17.30;99.90;;;;;;5158495;27;20050;-73
2023/09/18 04:40:40;;;;;;;39.53;29.13;;;17.40;99.90;;;;;;5139964;27;20039;-73
2023/09/18 04:43:06;;;;;;;37.75;29.17;;;17.40;99.90;;;;;;5140152;27;20043;-73
2023/09/18 04:45:32;;;;;;;38.75;28.83;;;17.40;99.90;;;;;;5139666;27;20477;-73
2023/09/18 04:47:58;;;;;;;37.47;28.13;;;17.40;99.90;;;;;;5139656;27;20047;-74
2023/09/18 04:50:26;;;;;;;36.17;27.73;;;17.30;99.90;;;;;;5139574;27;20125;-73
2023/09/18 04:52:54;;;;;;;39.05;28.02;;;17.40;99.90;;;;;;5139645;27;20508;-73
2023/09/18 04:55:20;;;;;;;35.60;27.15;;;17.40;99.90;;;;;;5139963;27;20051;-73
2023/09/18 04:57:45;;;;;;;34.35;25.58;;;17.40;99.90;;;;;;5157756;27;20049;-74
2023/09/18 05:00:14;;;;;;;34.58;26.75;;;17.30;99.90;;;;;;5139330;27;20118;-74
2023/09/18 05:02:40;;;;;;;33.15;26.67;;;17.30;99.90;;;;;;5139310;27;20171;-74
2023/09/18 05:05:08;;;;;;;37.28;27.63;;;17.40;99.90;;;;;;5139471;27;20088;-74
2023/09/18 05:07:34;;;;;;;33.95;26.40;;;17.40;99.90;;;;;;5139385;27;20046;-74
2023/09/18 05:10:00;;;;;;;37.03;26.60;;;17.40;99.90;;;;;;5139581;27;20041;-74
2023/09/18 05:12:26;;;;;;;37.17;25.20;;;17.40;99.90;;;;;;5139551;27;20050;-74
2023/09/18 05:14:51;;;;;;;34.28;26.42;;;17.40;99.90;;;;;;5139391;27;20046;-74
2023/09/18 05:17:18;;;;;;;32.25;25.75;;;17.40;99.90;;;;;;5138992;27;20039;-74
2023/09/18 05:19:44;;;;;;;33.08;26.30;;;17.40;99.90;;;;;;5138988;27;20398;-74
2023/09/18 05:22:10;;;;;;;35.47;26.98;;;17.50;99.90;;;;;;5138935;27;20077;-73
2023/09/18 05:24:37;;;;;;;34.45;24.85;;;17.50;99.90;;;;;;5138497;27;20078;-73
2023/09/18 05:27:03;;;;;;;34.95;24.63;;;17.50;99.90;;;;;;5139063;27;20046;-74
2023/09/18 05:29:29;;;;;;;30.35;23.05;;;17.50;99.90;;;;;;5157295;27;20122;-73
2023/09/18 05:31:54;;;;;;;32.15;23.85;;;17.50;99.90;;;;;;5138756;27;20050;-74
2023/09/18 05:34:20;;;;;;;32.28;24.90;;;17.50;99.90;;;;;;5157451;27;20478;-73
2023/09/18 05:36:46;;;;;;;33.50;24.63;;;17.50;99.90;;;;;;5138632;27;20375;-74
2023/09/18 05:39:12;;;;;;;29.90;24.10;;;17.50;99.90;;;;;;5138640;27;20089;-73
2023/09/18 05:41:41;;;;;;;30.92;24.58;;;17.50;99.90;;;;;;5138504;27;20482;-73
2023/09/18 05:44:07;;;;;;;33.28;24.15;;;17.50;99.90;;;;;;5138707;27;20038;-73
2023/09/18 05:46:37;;;;;;;33.30;24.88;;;17.50;99.90;;;;;;5138439;27;20393;-73
2023/09/18 05:49:04;;;;;;;30.70;23.38;;;17.50;99.90;;;;;;5156916;27;20043;-72
2023/09/18 05:51:31;;;;;;;31.58;24.67;;;17.50;99.90;;;;;;5138464;27;20051;-73
2023/09/18 05:53:56;;;;;;;35.08;23.75;;;17.60;99.90;;;;;;5138627;27;20039;-73
2023/09/18 05:56:23;;;;;;;29.38;22.77;;;17.50;99.90;;;;;;5138482;27;20394;-73
2023/09/18 05:58:49;;;;;;;31.48;23.70;;;17.60;99.90;;;;;;5138537;27;20049;-73
2023/09/18 06:01:15;;;;;;;28.30;21.92;;;17.50;99.90;;;;;;5156643;27;20035;-73
2023/09/18 06:03:40;;;;;;;30.77;23.30;;;17.60;99.90;;;;;;5138050;27;20134;-73
2023/09/18 06:06:09;;;;;;;30.38;23.52;;;17.50;99.90;;;;;;5138086;27;20046;-74
2023/09/18 06:08:34;;;;;;;30.00;22.67;;;17.60;99.90;;;;;;5137955;27;20047;-74
2023/09/18 06:11:00;;;;;;;29.70;21.77;;;17.60;99.90;;;;;;5156510;27;20041;-73
2023/09/18 06:13:27;;;;;;;27.50;20.33;;;17.60;99.90;;;;;;5137975;27;20073;-74
2023/09/18 06:15:55;;;;;;;27.02;21.83;;;17.70;99.90;;;;;;5134074;27;20034;-72
2023/09/18 06:18:22;;;;;;;29.25;22.13;;;17.70;99.90;;;;;;5126230;27;20410;-74
2023/09/18 06:20:49;;;;;;;28.30;21.20;;;17.60;99.90;;;;;;5117006;27;20075;-72
2023/09/18 06:23:14;;;;;;;29.05;20.52;;;17.70;99.90;;;;;;5116761;27;20046;-72
2023/09/18 06:25:40;;;;;;;27.27;20.40;;;17.70;99.90;;;;;;5135465;27;20035;-73
2023/09/18 06:28:06;;;;;;;28.27;19.75;;;17.70;99.90;;;;;;5135309;27;20047;-73
2023/09/18 06:30:36;;;;;;;24.70;19.05;;;17.70;99.90;;;;;;5117040;27;20061;-73
2023/09/18 06:33:03;;;;;;;25.77;19.05;;;17.70;99.90;;;;;;5116553;27;20384;-73
2023/09/18 06:35:30;;;;;;;25.52;18.77;;;17.80;99.90;;;;;;5116611;27;20065;-71
2023/09/18 06:37:58;;;;;;;26.88;19.13;;;17.80;99.90;;;;;;5116378;27;20051;-71
2023/09/18 06:40:26;;;;;;;26.70;18.88;;;17.80;99.90;;;;;;5135284;27;20071;-71
2023/09/18 06:42:57;;;;;;;25.25;19.45;;;17.90;99.90;;;;;;5116733;27;20453;-72
2023/09/18 06:45:23;;;;;;;22.60;17.83;;;17.90;99.90;;;;;;5135215;27;20035;-71
2023/09/18 06:47:50;;;;;;;25.38;18.58;;;17.80;99.90;;;;;;5116420;27;20112;-72
2023/09/18 06:50:15;;;;;;;22.20;17.77;;;17.90;99.90;;;;;;5116363;27;20043;-73
2023/09/18 06:52:41;;;;;;;26.42;17.77;;;17.90;99.90;;;;;;5115890;27;20043;-73
2023/09/18 06:55:10;;;;;;;29.92;19.25;;;17.90;99.90;;;;;;5116224;27;20039;-72
2023/09/18 06:57:35;;;;;;;27.48;18.98;;;18.00;99.90;;;;;;5116249;27;20051;-72
2023/09/18 07:00:02;;;;;;;27.58;18.15;;;18.00;99.90;;;;;;5116348;27;20058;-72
2023/09/18 07:02:28;;;;;;;25.70;19.00;;;18.10;99.90;;;;;;5134531;27;20070;-73
2023/09/18 07:04:54;;;;;;;26.88;19.23;;;18.00;99.90;;;;;;5116127;27;20431;-73
2023/09/18 07:07:25;;;;;;;28.92;19.90;;;18.10;99.90;;;;;;5116198;27;20054;-72
2023/09/18 07:09:53;;;;;;;23.33;18.75;;;18.10;99.90;;;;;;5134571;27;20062;-72
2023/09/18 07:12:19;;;;;;;24.95;19.83;;;18.10;99.90;;;;;;5134729;27;20114;-71
2023/09/18 07:14:48;;;;;;;30.70;20.38;;;18.10;99.90;;;;;;5116086;27;20573;-72
2023/09/18 07:17:16;;;;;;;28.95;19.92;;;18.10;99.90;;;;;;5134195;27;20047;-73
2023/09/18 07:19:44;;;;;;;24.70;19.23;;;18.10;99.90;;;;;;5134520;27;20174;-73
2023/09/18 07:22:10;;;;;;;23.67;17.15;;;18.10;99.90;;;;;;5115862;27;20051;-72
2023/09/18 07:24:35;;;;;;;21.98;15.90;;;18.10;99.90;;;;;;5134475;27;20080;-73
2023/09/18 07:27:01;;;;;;;19.30;15.15;;;18.20;99.90;;;;;;5115917;28;20517;-73
2023/09/18 07:29:27;;;;;;;20.88;14.13;;;18.20;99.90;;;;;;5115761;27;20406;-73
2023/09/18 07:31:54;;;;;;;19.85;13.70;;;18.20;99.90;;;;;;5115765;27;20052;-73
2023/09/18 07:34:20;;;;;;;17.08;11.70;;;18.20;99.90;;;;;;5115720;28;20050;-73
2023/09/18 07:36:45;;;;;;;16.52;11.98;;;18.20;99.90;;;;;;5134314;28;20047;-73
2023/09/18 07:39:11;;;;;;;16.95;11.50;;;18.20;99.90;;;;;;5115907;28;20117;-73
2023/09/18 07:41:37;;;;;;;17.98;12.38;;;18.10;99.90;;;;;;5115938;28;20138;-73
2023/09/18 07:44:03;;;;;;;16.73;11.15;;;18.10;99.90;;;;;;5116007;28;20047;-73
2023/09/18 07:46:29;;;;;;;19.90;11.80;;;18.10;99.90;;;;;;5133888;27;20046;-73
2023/09/18 07:48:58;;;;;;;19.48;11.38;;;18.10;99.90;;;;;;5115647;28;20043;-73
2023/09/18 07:51:27;;;;;;;19.48;11.63;;;18.10;99.90;;;;;;5134260;28;20035;-73
2023/09/18 07:53:53;;;;;;;17.33;11.57;;;18.10;99.90;;;;;;5134164;28;20047;-73
2023/09/18 07:56:19;;;;;;;19.50;11.35;;;18.10;99.90;;;;;;5115453;28;20035;-73
2023/09/18 07:58:47;;;;;;;15.77;11.18;;;18.10;99.90;;;;;;5115533;28;20043;-72
2023/09/18 08:01:13;;;;;;;20.55;12.23;;;18.00;99.90;;;;;;5133855;28;20047;-74
2023/09/18 08:03:39;;;;;;;17.17;12.23;;;18.10;99.90;;;;;;5134218;27;20035;-73
2023/09/18 08:06:05;;;;;;;17.52;12.38;;;18.00;99.90;;;;;;5137143;27;20501;-74
2023/09/18 08:08:33;;;;;;;17.65;11.90;;;18.10;99.90;;;;;;5138208;27;20047;-73
2023/09/18 08:11:00;;;;;;;17.10;12.00;;;18.10;99.90;;;;;;5137976;27;20049;-73
2023/09/18 08:13:26;;;;;;;18.23;12.43;;;18.00;99.90;;;;;;5137840;27;20125;-73
2023/09/18 08:15:52;;;;;;;15.48;10.57;;;18.00;99.90;;;;;;5119227;27;20130;-73
2023/09/18 08:18:18;;;;;;;17.17;11.10;;;18.10;99.90;;;;;;5119313;27;20047;-73
2023/09/18 08:20:44;;;;;;;18.98;12.15;;;18.00;99.90;;;;;;5119333;27;20043;-73
2023/09/18 08:23:12;;;;;;;18.52;12.90;;;18.10;99.90;;;;;;5119554;27;20039;-73
2023/09/18 08:25:40;;;;;;;22.48;13.63;;;18.10;99.90;;;;;;5119569;27;20078;-73
2023/09/18 08:28:06;;;;;;;20.42;12.00;;;18.10;99.90;;;;;;5137533;27;20043;-73
2023/09/18 08:30:32;;;;;;;15.43;10.23;;;18.10;99.90;;;;;;5137477;27;20061;-73
2023/09/18 08:32:58;;;;;;;15.60;9.68;;;18.00;99.90;;;;;;5118946;27;20062;-73
2023/09/18 08:35:28;;;;;;;16.17;10.57;;;18.10;99.90;;;;;;5119107;27;20043;-73
2023/09/18 08:37:54;;;;;;;21.92;12.02;;;18.00;99.90;;;;;;5118905;27;20043;-74
2023/09/18 08:40:23;;;;;;;17.58;12.27;;;18.10;99.90;;;;;;5137498;27;20391;-74
2023/09/18 08:42:52;;;;;;;18.33;11.40;;;18.10;99.90;;;;;;5118820;27;20046;-74
2023/09/18 08:45:30;;;;;;;23.63;12.18;;;18.00;99.90;;;;;;5137264;27;20096;-74
2023/09/18 08:47:56;;;;;;;20.10;10.77;;;18.10;99.90;;;;;;5119071;27;20036;-74
2023/09/18 08:50:22;;;;;;;16.33;8.85;;;18.10;99.90;;;;;;5137383;27;20057;-74
2023/09/18 08:52:49;;;;;;;13.93;8.55;;;18.10;99.90;;;;;;5127558;27;20042;-74
2023/09/18 08:55:16;;;;;;;14.10;7.85;;;18.10;99.90;;;;;;5138569;27;20481;-74
2023/09/18 08:57:44;;;;;;;11.23;7.32;;;18.10;99.90;;;;;;5139068;27;20413;-74
2023/09/18 09:00:16;;;;;;;12.60;7.95;;;18.20;99.90;;;;;;5157889;27;20043;-74
2023/09/18 09:02:43;;;;;;;12.30;7.93;;;18.10;99.90;;;;;;5139407;27;20065;-73
2023/09/18 09:05:09;;;;;;;13.52;8.63;;;18.20;99.90;;;;;;5157899;27;20039;-74
2023/09/18 09:07:35;;;;;;;10.57;7.03;;;18.20;99.90;;;;;;5139014;27;20557;-74
2023/09/18 09:10:05;;;;;;;12.80;7.93;;;18.30;99.90;;;;;;5137732;27;20114;-74
2023/09/18 09:13:02;;;;;;;15.07;8.20;;;18.30;99.90;;;;;;5129298;27;20129;-74
2023/09/18 09:15:47;;;;;;;14.15;9.35;;;18.30;99.90;;;;;;5136320;27;20057;-73
2023/09/18 09:18:16;;;;;;;16.75;9.68;;;18.30;99.90;;;;;;5118095;27;20051;-74
2023/09/18 09:20:59;;;;;;;18.08;11.23;;;18.40;99.90;;;;;;5138120;27;20040;-74
2023/09/18 09:23:52;;;;;;;18.75;11.40;;;18.50;99.90;;;;;;5136517;27;20045;-73
2023/09/18 09:26:19;;;;;;;16.45;11.63;;;18.40;99.90;;;;;;5133163;27;20131;-74
2023/09/18 09:28:46;;;;;;;21.35;11.90;;;18.50;99.90;;;;;;5138548;27;20046;-73
2023/09/18 09:31:22;;;;;;;17.42;10.95;;;18.50;99.90;;;;;;5138351;27;20043;-74
2023/09/18 09:33:53;;;;;;;18.00;11.88;;;18.60;99.90;;;;;;5138474;27;20454;-74
2023/09/18 09:36:19;;;;;;;18.38;12.60;;;18.60;99.90;;;;;;5138741;27;20038;-74
2023/09/18 09:38:45;;;;;;;18.80;12.35;;;18.60;99.90;;;;;;5156889;27;20066;-73
2023/09/18 09:41:17;;;;;;;16.55;12.75;;;18.70;99.90;;;;;;5138389;27;20115;-74
2023/09/18 09:43:44;;;;;;;18.70;13.35;;;18.70;99.90;;;;;;5138521;27;20054;-74
2023/09/18 09:46:21;;;;;;;20.65;12.93;;;18.80;99.90;;;;;;5138309;27;20038;-74
2023/09/18 09:49:01;;;;;;;18.88;13.85;;;18.80;99.90;;;;;;5138274;27;20053;-74
2023/09/18 09:51:28;;;;;;;19.35;12.88;;;18.80;99.90;;;;;;5138197;27;20160;-74
2023/09/18 09:53:54;;;;;;;19.55;14.02;;;18.80;99.90;;;;;;5137934;27;20446;-74
2023/09/18 09:56:21;;;;;;;21.48;13.35;;;18.90;99.90;;;;;;5137980;27;20517;-74
2023/09/18 09:59:09;;;;;;;23.63;13.68;;;18.90;99.90;;;;;;5138248;27;20504;-74
2023/09/18 10:01:38;;;;;;;18.63;13.95;;;19.00;99.90;;;;;;5137960;27;20133;-74
2023/09/18 10:04:17;;;;;;;21.98;14.45;;;19.00;99.90;;;;;;5156381;27;20046;-74
2023/09/18 10:06:47;;;;;;;25.23;14.90;;;19.10;99.90;;;;;;5137863;27;20050;-73
2023/09/18 10:09:15;;;;;;;24.63;16.48;;;19.20;99.90;;;;;;5137847;27;20503;-74
2023/09/18 10:11:45;;;;;;;18.30;14.05;;;19.20;99.90;;;;;;5136613;27;20035;-74
2023/09/18 10:14:25;;;;;;;21.02;15.23;;;19.20;99.90;;;;;;5136353;27;20057;-74
2023/09/18 10:16:55;;;;;;;24.00;15.85;;;19.30;99.90;;;;;;5136659;27;20039;-74
2023/09/18 10:19:39;;;;;;;22.80;15.57;;;19.40;99.90;;;;;;5135808;27;20046;-72
2023/09/18 10:22:37;;;;;;;21.98;16.17;;;19.50;99.90;;;;;;5137557;27;20057;-73
2023/09/18 10:25:23;;;;;;;22.17;16.98;;;19.60;99.90;;;;;;5137679;27;20899;-72
2023/09/18 10:28:07;;;;;;;23.17;17.85;;;19.70;99.90;;;;;;5136647;27;20050;-72
2023/09/18 10:30:34;;;;;;;21.70;17.38;;;19.80;99.90;;;;;;5137649;27;20086;-72
2023/09/18 10:33:01;;;;;;;22.30;17.05;;;19.80;99.90;;;;;;5137079;27;20051;-72
2023/09/18 10:35:28;;;;;;;18.50;15.23;;;20.00;99.90;;;;;;5155951;27;20047;-72
2023/09/18 10:37:54;;;;;;;21.63;16.42;;;19.90;99.90;;;;;;5155703;27;20038;-74
2023/09/18 10:40:22;;;;;;;20.67;16.60;;;20.00;99.90;;;;;;5153049;27;20486;-73
2023/09/18 10:42:50;;;;;;;19.92;17.63;;;20.10;99.90;;;;;;5134444;27;20038;-74
2023/09/18 10:45:16;;;;;;;20.15;17.45;;;20.30;99.90;;;;;;5134720;27;20086;-73
2023/09/18 10:47:47;;;;;;;22.40;17.80;;;20.20;99.90;;;;;;5134754;27;20442;-74
2023/09/18 10:50:26;;;;;;;19.30;16.77;;;20.20;99.90;;;;;;5132074;27;20085;-74
2023/09/18 10:52:51;;;;;;;20.52;17.35;;;20.10;99.90;;;;;;5150543;27;20043;-74
2023/09/18 10:55:17;;;;;;;21.63;17.73;;;20.20;99.90;;;;;;5134274;27;20049;-74
2023/09/18 10:57:54;;;;;;;20.63;16.75;;;20.30;99.90;;;;;;5134415;27;20046;-74
2023/09/18 11:00:25;;;;;;;19.23;15.45;;;20.40;99.90;;;;;;5134118;27;20103;-74
2023/09/18 11:03:14;;;;;;;17.98;16.08;;;20.50;99.90;;;;;;5131707;27;20388;-74
2023/09/18 11:05:40;;;;;;;16.83;15.05;;;20.50;99.90;;;;;;5132645;27;20047;-74
2023/09/18 11:08:35;;;;;;;18.88;16.15;;;20.50;99.90;;;;;;5133903;27;20054;-73
2023/09/18 11:11:09;;;;;;;17.80;16.00;;;20.60;99.90;;;;;;5133013;27;20087;-74
2023/09/18 11:13:36;;;;;;;17.50;15.70;;;20.50;99.90;;;;;;5134215;27;20118;-74
2023/09/18 11:16:28;;;;;;;18.00;15.25;;;20.60;99.90;;;;;;5134268;27;20081;-73
2023/09/18 11:19:00;;;;;;;16.75;14.90;;;20.50;99.90;;;;;;5136250;27;20077;-74
2023/09/18 11:21:30;;;;;;;15.77;14.17;;;20.50;99.90;;;;;;5136577;27;20043;-73
2023/09/18 11:24:11;;;;;;;16.70;14.60;;;20.50;99.90;;;;;;5136367;27;20349;-72
2023/09/18 11:26:40;;;;;;;16.55;14.77;;;20.60;99.90;;;;;;5136459;27;20111;-72
2023/09/18 11:29:09;;;;;;;16.45;14.63;;;20.60;99.90;;;;;;5136608;27;20042;-73
2023/09/18 11:31:55;;;;;;;16.92;14.07;;;20.70;99.90;;;;;;5154534;27;20065;-74
2023/09/18 11:34:36;;;;;;;15.18;13.65;;;20.70;99.90;;;;;;5136722;27;20050;-74
2023/09/18 11:37:19;;;;;;;16.63;12.93;;;20.70;99.90;;;;;;5154740;27;20062;-73
2023/09/18 11:39:45;;;;;;;;;;;20.60;99.90;;;;;;5141647;27;20047;-72
2023/09/18 11:42:18;;;;;;;13.40;11.18;;;20.60;99.90;;;;;;5140635;27;19926;-73
2023/09/18 11:44:47;;;;;;;11.75;10.55;;;20.70;99.90;;;;;;5142972;27;20512;-73
2023/09/18 11:47:19;;;;;;;13.13;10.45;;;20.80;99.90;;;;;;5142919;27;20042;-74
2023/09/18 11:49:58;;;;;;;10.95;9.85;;;21.00;99.90;;;;;;5143295;27;20053;-74
2023/09/18 11:52:29;;;;;;;11.88;8.18;;;21.10;99.90;;;;;;5142966;27;20090;-73
2023/09/18 11:54:57;;;;;;;8.43;7.60;;;21.20;99.90;;;;;;5143451;27;20043;-73
2023/09/18 11:57:23;;;;;;;10.25;8.73;;;21.20;99.90;;;;;;5143021;27;20130;-74
2023/09/18 11:59:50;;;;;;;11.27;7.00;;;21.20;99.90;;;;;;5143491;27;20061;-74
2023/09/18 12:02:38;;;;;;;10.90;7.05;;;21.20;99.90;;;;;;5143180;27;20042;-72
2023/09/18 12:05:11;;;;;;;9.98;6.90;;;21.20;99.90;;;;;;5143017;27;20046;-73
2023/09/18 12:07:37;;;;;;;8.57;5.90;;;21.40;99.90;;;;;;5161372;27;20684;-75
2023/09/18 12:10:06;;;;;;;12.63;6.22;;;21.50;99.90;;;;;;5142970;27;20126;-73
2023/09/18 12:12:32;;;;;;;12.73;5.80;;;21.60;99.90;;;;;;5143195;27;20061;-74
2023/09/18 12:14:58;;;;;;;10.80;5.35;;;21.60;99.90;;;;;;5143212;27;20046;-73
2023/09/18 12:17:24;;;;;;;7.55;5.72;;;21.60;99.90;;;;;;5161460;27;20042;-73
2023/09/18 12:19:53;;;;;;;9.27;5.32;;;21.60;99.90;;;;;;5161494;27;20134;-73
2023/09/18 12:22:29;;;;;;;10.70;6.05;;;21.40;99.90;;;;;;5143174;27;20041;-73
2023/09/18 12:25:14;;;;;;;10.38;5.07;;;21.30;99.90;;;;;;5142663;27;20043;-74
2023/09/18 12:27:44;;;;;;;10.20;5.70;;;21.20;99.90;;;;;;5142733;27;20550;-73
2023/09/18 12:30:11;;;;;;;9.82;5.82;;;21.20;99.90;;;;;;5142963;27;20137;-73
2023/09/18 12:32:37;;;;;;;9.73;6.20;;;21.30;99.90;;;;;;5142505;27;20051;-73
2023/09/18 12:35:07;;;;;;;9.95;6.03;;;21.30;99.90;;;;;;5142625;27;20509;-73